createdAt,value
2023-03-31T00:01:37.230Z,99305.50
2023-03-31T00:04:06.316Z,99302.00
2023-03-31T00:06:38.305Z,99300.16
2023-03-31T00:09:11.472Z,99299.25
2023-03-31T00:11:40.612Z,99296.53
2023-03-31T00:14:10.569Z,99294.00
2023-03-31T00:16:40.780Z,99300.09
2023-03-31T00:19:18.214Z,99302.75
2023-03-31T00:21:48.473Z,99301.94
2023-03-31T00:24:17.789Z,99297.44
2023-03-31T00:26:46.584Z,99290.50
2023-03-31T00:29:15.476Z,99289.03
2023-03-31T00:31:45.668Z,99291.78
2023-03-31T00:34:14.639Z,99284.81
2023-03-31T00:36:47.613Z,99284.81
2023-03-31T00:39:19.234Z,99290.72
2023-03-31T00:41:48.008Z,99283.66
2023-03-31T00:44:22.878Z,99281.81
2023-03-31T00:46:58.322Z,99282.00
2023-03-31T00:49:32.096Z,99275.63
2023-03-31T00:52:05.294Z,99272.91
2023-03-31T00:54:36.727Z,99267.19
2023-03-31T00:57:07.501Z,99264.03
2023-03-31T00:59:41.473Z,99267.69
2023-03-31T01:02:14.897Z,99266.28
2023-03-31T01:04:50.347Z,99262.16
2023-03-31T01:07:25.760Z,99263.09
2023-03-31T01:10:00.229Z,99269.44
2023-03-31T01:12:29.530Z,99265.25
2023-03-31T01:14:59.029Z,99267.00
2023-03-31T01:17:29.970Z,99264.63
2023-03-31T01:20:14.931Z,99257.53
2023-03-31T01:23:22.761Z,99256.91
2023-03-31T01:26:32.101Z,99253.94
2023-03-31T01:29:11.498Z,99253.19
2023-03-31T01:32:19.983Z,99250.47
2023-03-31T01:35:20.375Z,99248.59
2023-03-31T01:38:27.177Z,99251.59
2023-03-31T01:41:13.365Z,99252.56
2023-03-31T01:43:50.346Z,99248.81
2023-03-31T01:46:29.100Z,99251.06
2023-03-31T01:49:08.459Z,99263.25
2023-03-31T01:51:47.460Z,99256.41
2023-03-31T01:54:25.052Z,99254.19
2023-03-31T01:57:02.933Z,99247.22
2023-03-31T01:59:38.965Z,99240.75
2023-03-31T02:02:11.624Z,99231.81
2023-03-31T02:04:45.117Z,99233.00
2023-03-31T02:07:20.745Z,99234.06
2023-03-31T02:09:54.908Z,99226.63
2023-03-31T02:12:29.490Z,99229.03
2023-03-31T02:15:01.709Z,99217.34
2023-03-31T02:17:33.989Z,99223.56
2023-03-31T02:20:09.390Z,99221.41
2023-03-31T02:22:43.332Z,99220.03
2023-03-31T02:25:17.600Z,99222.34
2023-03-31T02:27:51.078Z,99213.13
2023-03-31T02:30:20.227Z,99215.09
2023-03-31T02:32:49.040Z,99215.25
2023-03-31T02:35:23.135Z,99216.22
2023-03-31T02:37:52.550Z,99210.22
2023-03-31T02:40:27.702Z,99218.00
2023-03-31T02:42:58.310Z,99219.03
2023-03-31T02:45:46.559Z,99221.53
2023-03-31T02:48:19.804Z,99210.72
2023-03-31T02:51:32.241Z,99218.38
2023-03-31T02:54:21.570Z,99204.59
2023-03-31T02:57:13.503Z,99207.97
2023-03-31T02:59:54.111Z,99208.34
2023-03-31T03:02:36.649Z,99220.41
2023-03-31T03:05:20.443Z,99225.25
2023-03-31T03:08:20.269Z,99226.34
2023-03-31T03:11:03.251Z,99236.66
2023-03-31T03:13:38.280Z,99230.88
2023-03-31T03:16:19.331Z,99223.66
2023-03-31T03:18:58.355Z,99232.13
2023-03-31T03:21:27.501Z,99225.97
2023-03-31T03:23:56.669Z,99219.97
2023-03-31T03:26:28.344Z,99221.19
2023-03-31T03:28:58.487Z,99213.22
2023-03-31T03:31:28.560Z,99228.09
2023-03-31T03:33:57.492Z,99227.59
2023-03-31T03:36:26.333Z,99224.06
2023-03-31T03:38:55.253Z,99224.25
2023-03-31T03:41:23.815Z,99228.78
2023-03-31T03:43:52.757Z,99216.53
2023-03-31T03:46:21.343Z,99223.19
2023-03-31T03:48:51.696Z,99222.50
2023-03-31T03:51:20.495Z,99220.38
2023-03-31T03:53:49.409Z,99207.63
2023-03-31T03:56:17.940Z,99212.22
2023-03-31T03:58:46.833Z,99201.91
2023-03-31T04:01:16.322Z,99200.03
2023-03-31T04:03:45.512Z,99203.69
2023-03-31T04:06:15.590Z,99205.13
2023-03-31T04:08:44.595Z,99204.34
2023-03-31T04:11:18.871Z,99206.41
2023-03-31T04:13:48.503Z,99189.28
2023-03-31T04:16:17.703Z,99189.72
2023-03-31T04:18:46.687Z,99195.50
2023-03-31T04:21:23.197Z,99175.72
2023-03-31T04:23:58.989Z,99185.75
2023-03-31T04:26:39.412Z,99189.53
2023-03-31T04:29:08.567Z,99183.22
2023-03-31T04:31:42.955Z,99171.84
2023-03-31T04:34:14.254Z,99181.59
2023-03-31T04:36:48.130Z,99181.19
2023-03-31T04:39:24.493Z,99178.22
2023-03-31T04:41:53.103Z,99172.50
2023-03-31T04:44:22.023Z,99169.50
2023-03-31T04:46:50.908Z,99171.59
2023-03-31T04:49:19.951Z,99171.91
2023-03-31T04:51:50.148Z,99169.53
2023-03-31T04:54:19.130Z,99170.09
2023-03-31T04:56:47.720Z,99174.75
2023-03-31T04:59:16.922Z,99174.44
2023-03-31T05:01:46.290Z,99175.13
2023-03-31T05:04:15.541Z,99167.50
2023-03-31T05:06:44.136Z,99171.28
2023-03-31T05:09:14.618Z,99169.28
2023-03-31T05:11:43.281Z,99166.88
2023-03-31T05:14:12.294Z,99168.31
2023-03-31T05:16:42.048Z,99168.84
2023-03-31T05:19:10.991Z,99166.50
2023-03-31T05:21:39.652Z,99157.69
2023-03-31T05:24:08.968Z,99154.56
2023-03-31T05:26:39.950Z,99154.03
2023-03-31T05:29:08.972Z,99150.97
2023-03-31T05:31:37.638Z,99153.31
2023-03-31T05:34:06.634Z,99144.03
2023-03-31T05:36:35.597Z,99144.66
2023-03-31T05:39:04.731Z,99150.09
2023-03-31T05:41:33.623Z,99145.38
2023-03-31T05:44:03.841Z,99136.81
2023-03-31T05:46:32.746Z,99134.56
2023-03-31T05:49:02.458Z,99139.53
2023-03-31T05:51:31.034Z,99124.09
2023-03-31T05:53:59.930Z,99123.06
2023-03-31T05:56:28.674Z,99127.88
2023-03-31T05:58:57.855Z,99121.72
2023-03-31T06:01:28.017Z,99122.06
2023-03-31T06:03:58.693Z,99113.44
2023-03-31T06:06:27.965Z,99101.28
2023-03-31T06:08:56.812Z,99102.66
2023-03-31T06:11:25.465Z,99102.88
2023-03-31T06:13:54.262Z,99096.31
2023-03-31T06:16:22.994Z,99100.16
2023-03-31T06:18:53.672Z,99102.09
2023-03-31T06:21:22.188Z,99106.72
2023-03-31T06:23:55.184Z,99106.19
2023-03-31T06:26:24.042Z,99099.59
2023-03-31T06:28:53.405Z,99099.00
2023-03-31T06:31:24.791Z,99105.34
2023-03-31T06:33:54.941Z,99105.88
2023-03-31T06:36:24.015Z,99105.03
2023-03-31T06:38:53.325Z,99104.41
2023-03-31T06:41:22.732Z,99105.50
2023-03-31T06:43:51.951Z,99105.13
2023-03-31T06:46:24.854Z,99104.88
2023-03-31T06:48:55.482Z,99106.03
2023-03-31T06:51:26.255Z,99097.00
2023-03-31T06:53:59.205Z,99109.56
2023-03-31T06:56:28.494Z,99113.22
2023-03-31T06:58:57.954Z,99105.97
2023-03-31T07:01:26.580Z,99109.84
2023-03-31T07:03:56.967Z,99122.94
2023-03-31T07:06:25.708Z,99115.63
2023-03-31T07:08:54.624Z,99113.38
2023-03-31T07:11:24.199Z,99113.44
2023-03-31T07:13:53.354Z,99115.72
2023-03-31T07:16:23.640Z,99119.00
2023-03-31T07:18:54.889Z,99120.00
2023-03-31T07:21:24.856Z,99127.75
2023-03-31T07:23:53.893Z,99123.59
2023-03-31T07:26:22.618Z,99116.50
2023-03-31T07:28:51.969Z,99125.00
2023-03-31T07:31:20.660Z,99129.41
2023-03-31T07:33:49.662Z,99124.81
2023-03-31T07:36:18.620Z,99136.19
2023-03-31T07:38:49.711Z,99133.50
2023-03-31T07:41:20.756Z,99140.25
2023-03-31T07:43:50.426Z,99139.78
2023-03-31T07:46:21.381Z,99133.97
2023-03-31T07:48:51.498Z,99140.34
2023-03-31T07:51:22.334Z,99130.44
2023-03-31T07:53:53.224Z,99124.31
2023-03-31T07:56:25.179Z,99130.50
2023-03-31T07:58:57.359Z,99129.66
2023-03-31T08:01:29.046Z,99123.09
2023-03-31T08:04:18.988Z,99128.41
2023-03-31T08:06:47.727Z,99123.97
2023-03-31T08:09:18.901Z,99117.94
2023-03-31T08:11:48.159Z,99113.91
2023-03-31T08:14:21.899Z,99116.88
2023-03-31T08:16:57.973Z,99110.16
2023-03-31T08:19:27.381Z,99109.72
2023-03-31T08:21:55.996Z,99108.19
2023-03-31T08:24:26.313Z,99098.31
2023-03-31T08:26:54.911Z,99100.97
2023-03-31T08:29:23.777Z,99094.19
2023-03-31T08:31:52.380Z,99085.63
2023-03-31T08:34:21.395Z,99084.47
2023-03-31T08:36:50.402Z,99079.97
2023-03-31T08:39:19.976Z,99083.69
2023-03-31T08:41:59.215Z,99073.53
2023-03-31T08:44:36.343Z,99075.81
2023-03-31T08:47:08.341Z,99068.78
2023-03-31T08:49:43.630Z,99063.91
2023-03-31T08:52:16.865Z,99052.38
2023-03-31T08:54:51.044Z,99061.19
2023-03-31T08:57:26.360Z,99066.69
2023-03-31T08:59:58.421Z,99069.91
2023-03-31T09:02:36.037Z,99055.03
2023-03-31T09:05:24.027Z,99056.41
2023-03-31T09:08:03.975Z,99044.91
2023-03-31T09:10:44.211Z,99031.69
2023-03-31T09:13:31.562Z,99045.13
2023-03-31T09:16:06.631Z,99036.50
2023-03-31T09:18:38.743Z,99026.84
2023-03-31T09:21:16.912Z,99021.13
2023-03-31T09:23:50.783Z,99010.63
2023-03-31T09:26:28.480Z,99000.13
2023-03-31T09:29:01.473Z,98996.53
2023-03-31T09:31:31.429Z,98999.31
2023-03-31T09:34:03.443Z,98990.47
2023-03-31T09:36:33.256Z,98988.44
2023-03-31T09:39:01.832Z,98986.22
2023-03-31T09:41:33.044Z,98986.56
2023-03-31T09:44:04.053Z,98986.56
2023-03-31T09:46:37.510Z,98981.13
2023-03-31T09:49:12.669Z,98978.75
2023-03-31T09:51:47.470Z,98976.59
2023-03-31T09:54:23.849Z,98976.56
2023-03-31T09:56:54.208Z,98985.03
2023-03-31T09:59:25.635Z,98967.97
2023-03-31T10:01:59.558Z,98965.28
2023-03-31T10:04:31.835Z,98966.97
2023-03-31T10:07:02.738Z,98953.22
2023-03-31T10:09:33.777Z,98952.16
2023-03-31T10:12:07.375Z,98948.28
2023-03-31T10:14:42.281Z,98948.47
2023-03-31T10:17:16.931Z,98948.56
2023-03-31T10:19:50.090Z,98935.19
2023-03-31T10:22:29.486Z,98932.81
2023-03-31T10:25:11.063Z,98929.78
2023-03-31T10:27:42.896Z,98912.19
2023-03-31T10:30:20.455Z,98921.59
2023-03-31T10:32:52.617Z,98904.41
2023-03-31T10:35:28.118Z,98898.03
2023-03-31T10:38:00.061Z,98899.13
2023-03-31T10:40:32.151Z,98893.28
2023-03-31T10:43:05.151Z,98893.09
2023-03-31T10:45:42.851Z,98895.44
2023-03-31T10:48:19.819Z,98884.63
2023-03-31T10:50:49.407Z,98887.28
2023-03-31T10:53:19.774Z,98879.69
2023-03-31T10:56:02.028Z,98877.13
2023-03-31T10:59:05.138Z,98870.44
2023-03-31T11:01:52.268Z,98856.16
2023-03-31T11:04:36.874Z,98847.97
2023-03-31T11:07:15.075Z,98829.72
2023-03-31T11:09:57.757Z,98820.97
2023-03-31T11:12:32.634Z,98822.97
2023-03-31T11:15:14.710Z,98805.28
2023-03-31T11:18:00.319Z,98795.16
2023-03-31T11:20:38.667Z,98786.44
2023-03-31T11:23:21.266Z,98778.56
2023-03-31T11:25:57.003Z,98768.97
2023-03-31T11:28:44.457Z,98756.50
2023-03-31T11:31:28.812Z,98752.13
2023-03-31T11:34:18.490Z,98744.13
2023-03-31T11:37:02.670Z,98738.28
2023-03-31T11:39:43.682Z,98746.50
2023-03-31T11:42:17.698Z,98734.25
2023-03-31T11:44:53.087Z,98727.69
2023-03-31T11:47:26.862Z,98724.09
2023-03-31T11:50:04.915Z,98718.25
2023-03-31T11:52:38.654Z,98715.53
2023-03-31T11:55:16.274Z,98707.25
2023-03-31T11:57:49.927Z,98697.22
2023-03-31T12:00:22.712Z,98687.34
2023-03-31T12:02:57.779Z,98675.53
2023-03-31T12:05:29.895Z,98670.91
2023-03-31T12:08:04.535Z,98671.91
2023-03-31T12:10:37.163Z,98665.41
2023-03-31T12:13:22.929Z,98653.47
2023-03-31T12:16:01.532Z,98652.72
2023-03-31T12:18:36.524Z,98654.97
2023-03-31T12:21:07.500Z,98650.75
2023-03-31T12:23:43.566Z,98658.91
2023-03-31T12:26:25.038Z,98665.47
2023-03-31T12:28:58.561Z,98665.59
2023-03-31T12:31:30.568Z,98664.22
2023-03-31T12:34:03.175Z,98664.53
2023-03-31T12:36:48.467Z,98666.50
2023-03-31T12:39:37.277Z,98645.91
2023-03-31T12:42:33.794Z,98645.88
2023-03-31T12:45:12.080Z,98638.34
2023-03-31T12:48:08.370Z,98629.53
2023-03-31T12:50:51.892Z,98625.28
2023-03-31T12:53:31.514Z,98613.53
2023-03-31T12:56:01.342Z,98626.97
2023-03-31T12:58:44.316Z,98621.47
2023-03-31T13:01:16.685Z,98612.63
2023-03-31T13:03:54.863Z,98607.59
2023-03-31T13:07:03.226Z,98597.09
2023-03-31T13:09:54.001Z,98589.19
2023-03-31T13:12:28.013Z,98578.75
2023-03-31T13:17:59.298Z,98582.25
2023-03-31T13:20:35.813Z,98579.66
2023-03-31T13:23:07.999Z,98559.47
2023-03-31T13:25:48.848Z,98558.94
2023-03-31T13:28:33.262Z,98558.56
2023-03-31T13:31:03.908Z,98548.38
2023-03-31T13:33:43.936Z,98539.47
2023-03-31T13:36:48.595Z,98539.00
2023-03-31T13:39:48.617Z,98530.44
2023-03-31T13:42:42.693Z,98519.78
2023-03-31T13:45:27.477Z,98517.44
2023-03-31T13:48:19.711Z,98513.69
2023-03-31T13:51:30.107Z,98506.94
2023-03-31T13:54:30.891Z,98509.00
2023-03-31T13:57:36.267Z,98503.84
2023-03-31T14:00:34.000Z,98506.91
2023-03-31T14:03:38.707Z,98500.50
2023-03-31T14:06:18.472Z,98493.00
2023-03-31T14:08:55.111Z,98488.19
2023-03-31T14:11:26.470Z,98481.19
2023-03-31T14:14:06.231Z,98475.06
2023-03-31T14:16:39.953Z,98474.75
2023-03-31T14:19:40.273Z,98462.19
2023-03-31T14:22:20.204Z,98464.84
2023-03-31T14:24:56.366Z,98460.13
2023-03-31T14:27:44.040Z,98456.47
2023-03-31T14:30:25.065Z,98453.63
2023-03-31T14:33:11.068Z,98448.44
2023-03-31T14:35:49.173Z,98445.94
2023-03-31T14:38:22.188Z,98439.38
2023-03-31T14:40:54.053Z,98435.69
2023-03-31T14:43:24.993Z,98436.97
2023-03-31T14:46:00.918Z,98438.81
2023-03-31T14:48:30.657Z,98430.56
2023-03-31T14:51:02.383Z,98420.53
2023-03-31T14:53:31.159Z,98414.53
2023-03-31T14:56:05.334Z,98415.56
2023-03-31T14:58:36.239Z,98415.09
2023-03-31T15:01:09.069Z,98398.03
2023-03-31T15:03:42.696Z,98405.44
2023-03-31T15:06:12.907Z,98403.88
2023-03-31T15:08:42.289Z,98396.84
2023-03-31T15:11:19.168Z,98397.31
2023-03-31T15:14:03.373Z,98388.72
2023-03-31T15:16:42.137Z,98384.91
2023-03-31T15:19:17.836Z,98387.19
2023-03-31T15:21:48.030Z,98385.78
2023-03-31T15:24:16.830Z,98377.53
2023-03-31T15:26:51.050Z,98377.19
2023-03-31T15:29:23.867Z,98378.88
2023-03-31T15:31:58.063Z,98379.59
2023-03-31T15:34:31.450Z,98374.63
2023-03-31T15:37:01.746Z,98371.13
2023-03-31T15:39:34.144Z,98371.38
2023-03-31T15:42:05.384Z,98358.97
2023-03-31T15:44:40.537Z,98360.50
2023-03-31T15:47:18.094Z,98353.22
2023-03-31T15:49:59.666Z,98345.19
2023-03-31T15:52:33.261Z,98343.34
2023-03-31T15:55:03.029Z,98342.63
2023-03-31T15:57:34.793Z,98334.97
2023-03-31T16:00:06.901Z,98339.09
2023-03-31T16:02:47.328Z,98338.47
2023-03-31T16:05:37.284Z,98334.22
2023-03-31T16:08:14.749Z,98332.28
2023-03-31T16:10:43.859Z,98323.66
2023-03-31T16:13:18.473Z,98319.31
2023-03-31T16:15:51.284Z,98313.50
2023-03-31T16:18:29.214Z,98307.78
2023-03-31T16:21:01.506Z,98314.13
2023-03-31T16:23:34.001Z,98307.25
2023-03-31T16:26:03.120Z,98311.97
2023-03-31T16:28:36.156Z,98303.50
2023-03-31T16:31:06.161Z,98302.78
2023-03-31T16:33:55.775Z,98305.53
2023-03-31T16:36:24.763Z,98299.91
2023-03-31T16:38:54.728Z,98297.47
2023-03-31T16:41:24.435Z,98281.56
2023-03-31T16:43:54.281Z,98287.19
2023-03-31T16:46:23.834Z,98285.09
2023-03-31T16:48:55.153Z,98280.88
2023-03-31T16:51:24.815Z,98273.34
2023-03-31T16:53:54.029Z,98276.25
2023-03-31T16:56:23.230Z,98271.44
2023-03-31T16:58:53.802Z,98266.84
2023-03-31T17:01:22.552Z,98271.56
2023-03-31T17:03:52.048Z,98257.75
2023-03-31T17:06:22.918Z,98259.59
2023-03-31T17:08:51.951Z,98265.41
2023-03-31T17:11:21.573Z,98266.63
2023-03-31T17:13:51.093Z,98283.25
2023-03-31T17:16:29.830Z,98275.84
2023-03-31T17:19:09.457Z,98285.91
2023-03-31T17:21:39.562Z,98274.59
2023-03-31T17:24:09.594Z,98270.94
2023-03-31T17:26:39.455Z,98276.16
2023-03-31T17:29:08.570Z,98272.66
2023-03-31T17:31:37.570Z,98280.84
2023-03-31T17:34:06.979Z,98279.06
2023-03-31T17:36:36.119Z,98279.16
2023-03-31T17:39:07.436Z,98276.56
2023-03-31T17:41:36.105Z,98274.09
2023-03-31T17:44:07.869Z,98284.81
2023-03-31T17:46:36.938Z,98280.91
2023-03-31T17:49:08.403Z,98278.75
2023-03-31T17:51:37.286Z,98286.13
2023-03-31T17:54:08.320Z,98280.22
2023-03-31T17:56:37.105Z,98278.31
2023-03-31T17:59:06.517Z,98275.22
2023-03-31T18:01:35.224Z,98281.13
2023-03-31T18:04:04.559Z,98279.69
2023-03-31T18:06:33.347Z,98273.88
2023-03-31T18:09:02.284Z,98262.84
2023-03-31T18:11:32.794Z,98266.81
2023-03-31T18:14:03.042Z,98260.50
2023-03-31T18:16:32.610Z,98256.78
2023-03-31T18:19:03.121Z,98255.13
2023-03-31T18:21:32.003Z,98251.84
2023-03-31T18:24:01.904Z,98253.41
2023-03-31T18:26:32.414Z,98248.28
2023-03-31T18:29:01.702Z,98246.81
2023-03-31T18:31:31.512Z,98233.53
2023-03-31T18:34:00.772Z,98236.13
2023-03-31T18:36:29.810Z,98230.81
2023-03-31T18:38:59.116Z,98223.63
2023-03-31T18:41:27.828Z,98227.97
2023-03-31T18:43:59.023Z,98232.91
2023-03-31T18:46:27.760Z,98241.09
2023-03-31T18:48:56.825Z,98243.75
2023-03-31T18:51:25.353Z,98249.19
2023-03-31T18:53:54.447Z,98247.59
2023-03-31T18:56:23.168Z,98240.28
2023-03-31T18:58:52.831Z,98239.25
2023-03-31T19:01:24.120Z,98235.94
2023-03-31T19:03:53.636Z,98217.66
2023-03-31T19:06:22.574Z,98212.78
2023-03-31T19:08:52.074Z,98226.25
2023-03-31T19:11:20.740Z,98214.47
2023-03-31T19:13:49.740Z,98214.91
2023-03-31T19:16:18.866Z,98208.31
2023-03-31T19:18:49.364Z,98208.09
2023-03-31T19:21:18.014Z,98205.97
2023-03-31T19:23:47.397Z,98194.50
2023-03-31T19:26:19.505Z,98194.28
2023-03-31T19:28:49.163Z,98191.91
2023-03-31T19:31:17.761Z,98192.34
2023-03-31T19:33:48.041Z,98194.06
2023-03-31T19:36:17.127Z,98191.59
2023-03-31T19:38:46.219Z,98194.03
2023-03-31T19:41:14.886Z,98191.19
2023-03-31T19:43:43.674Z,98189.38
2023-03-31T19:46:12.588Z,98183.94
2023-03-31T19:48:41.799Z,98187.69
2023-03-31T19:51:11.939Z,98197.22
2023-03-31T19:53:41.202Z,98199.13
2023-03-31T19:56:11.899Z,98204.84
2023-03-31T19:58:42.006Z,98205.59
2023-03-31T20:01:17.744Z,98212.63
2023-03-31T20:03:52.287Z,98204.66
2023-03-31T20:06:24.526Z,98209.03
2023-03-31T20:08:55.525Z,98208.13
2023-03-31T20:11:24.792Z,98200.50
2023-03-31T20:13:54.346Z,98194.34
2023-03-31T20:16:25.247Z,98198.09
2023-03-31T20:18:56.765Z,98188.41
2023-03-31T20:21:29.547Z,98189.59
2023-03-31T20:23:59.633Z,98188.88
2023-03-31T20:26:30.689Z,98184.78
2023-03-31T20:29:02.931Z,98189.38
2023-03-31T20:31:34.102Z,98198.38
2023-03-31T20:34:03.597Z,98205.38
2023-03-31T20:36:33.882Z,98202.38
2023-03-31T20:39:04.379Z,98203.50
2023-03-31T20:41:35.347Z,98205.69
2023-03-31T20:44:05.940Z,98204.34
2023-03-31T20:46:35.278Z,98206.13
2023-03-31T20:49:07.333Z,98211.16
2023-03-31T20:51:38.780Z,98203.06
2023-03-31T20:54:08.805Z,98206.53
2023-03-31T20:56:39.565Z,98204.31
2023-03-31T20:59:11.213Z,98199.50
2023-03-31T21:01:40.076Z,98193.13
2023-03-31T21:04:11.412Z,98189.38
2023-03-31T21:06:44.622Z,98188.22
2023-03-31T21:09:15.485Z,98183.06
2023-03-31T21:11:47.626Z,98178.78
2023-03-31T21:14:17.842Z,98173.72
2023-03-31T21:16:46.893Z,98174.91
2023-03-31T21:19:15.849Z,98172.91
2023-03-31T21:21:45.830Z,98177.81
2023-03-31T21:24:16.042Z,98183.88
2023-03-31T21:26:44.634Z,98179.06
2023-03-31T21:29:13.534Z,98179.72
2023-03-31T21:31:44.982Z,98180.69
2023-03-31T21:34:14.390Z,98176.31
2023-03-31T21:36:43.293Z,98186.06
2023-03-31T21:39:13.602Z,98183.84
2023-03-31T21:41:42.376Z,98182.75
2023-03-31T21:44:12.151Z,98191.16
2023-03-31T21:46:41.316Z,98189.59
2023-03-31T21:49:11.019Z,98192.34
2023-03-31T21:51:40.094Z,98191.44
2023-03-31T21:54:09.094Z,98204.03
2023-03-31T21:56:39.037Z,98216.75
2023-03-31T21:59:08.808Z,98212.19
2023-03-31T22:01:37.783Z,98216.72
2023-03-31T22:04:07.480Z,98222.13
2023-03-31T22:06:37.643Z,98218.78
2023-03-31T22:09:06.794Z,98217.53
2023-03-31T22:11:35.985Z,98212.00
2023-03-31T22:14:06.526Z,98198.81
2023-03-31T22:16:35.151Z,98196.88
2023-03-31T22:19:04.529Z,98202.19
2023-03-31T22:21:43.720Z,98210.66
2023-03-31T22:24:14.374Z,98216.41
2023-03-31T22:26:43.153Z,98218.81
2023-03-31T22:29:16.635Z,98221.19
2023-03-31T22:31:45.372Z,98209.97
2023-03-31T22:34:14.224Z,98209.63
2023-03-31T22:36:43.000Z,98214.84
2023-03-31T22:39:11.798Z,98224.66
2023-03-31T22:41:40.707Z,98230.16
2023-03-31T22:44:09.904Z,98225.75
2023-03-31T22:46:40.265Z,98215.75
2023-03-31T22:49:09.222Z,98216.72
2023-03-31T22:51:40.164Z,98211.44
2023-03-31T22:54:13.593Z,98219.28
2023-03-31T22:56:43.021Z,98219.38
2023-03-31T22:59:12.461Z,98220.63
2023-03-31T23:01:42.663Z,98225.16
2023-03-31T23:04:11.706Z,98223.34
2023-03-31T23:06:40.504Z,98212.38
2023-03-31T23:09:09.328Z,98202.25
2023-03-31T23:11:37.906Z,98196.13
2023-03-31T23:14:06.747Z,98204.28
2023-03-31T23:16:35.650Z,98206.59
2023-03-31T23:19:06.444Z,98201.66
2023-03-31T23:21:35.457Z,98195.34
2023-03-31T23:24:05.670Z,98203.69
2023-03-31T23:26:35.740Z,98204.53
2023-03-31T23:29:05.115Z,98212.41
2023-03-31T23:31:34.443Z,98207.09
2023-03-31T23:34:03.338Z,98205.78
2023-03-31T23:36:33.359Z,98196.59
2023-03-31T23:39:02.748Z,98186.47
2023-03-31T23:41:31.482Z,98165.06
2023-03-31T23:44:01.803Z,98165.69
2023-03-31T23:46:31.974Z,98157.88
2023-03-31T23:49:02.713Z,98158.38
2023-03-31T23:51:31.408Z,98170.16
2023-03-31T23:54:01.954Z,98164.63
2023-03-31T23:56:30.698Z,98157.13
2023-03-31T23:58:59.637Z,98146.09
